sensor_id;sensor_type;location;lat;lon;timestamp;temperature;humidity
48998;DHT22;34807;51.456;7.244;2023-06-26T00:01:49;24.90;69.70
48998;DHT22;34807;51.456;7.244;2023-06-26T00:04:15;24.90;69.80
48998;DHT22;34807;51.456;7.244;2023-06-26T00:06:40;24.90;69.70
48998;DHT22;34807;51.456;7.244;2023-06-26T00:09:07;24.80;69.70
48998;DHT22;34807;51.456;7.244;2023-06-26T00:11:32;24.80;69.60
48998;DHT22;34807;51.456;7.244;2023-06-26T00:13:59;24.80;69.60
48998;DHT22;34807;51.456;7.244;2023-06-26T00:16:25;24.70;69.60
48998;DHT22;34807;51.456;7.244;2023-06-26T00:18:51;24.80;69.80
48998;DHT22;34807;51.456;7.244;2023-06-26T00:21:17;24.70;69.60
48998;DHT22;34807;51.456;7.244;2023-06-26T00:23:42;24.70;69.80
48998;DHT22;34807;51.456;7.244;2023-06-26T00:26:08;24.70;69.90
48998;DHT22;34807;51.456;7.244;2023-06-26T00:28:34;24.60;69.60
48998;DHT22;34807;51.456;7.244;2023-06-26T00:31:00;24.60;69.50
48998;DHT22;34807;51.456;7.244;2023-06-26T00:33:25;24.60;69.50
48998;DHT22;34807;51.456;7.244;2023-06-26T00:35:51;24.60;69.70
48998;DHT22;34807;51.456;7.244;2023-06-26T00:38:16;24.60;69.70
48998;DHT22;34807;51.456;7.244;2023-06-26T00:40:42;24.50;69.70
48998;DHT22;34807;51.456;7.244;2023-06-26T00:43:08;24.50;69.90
48998;DHT22;34807;51.456;7.244;2023-06-26T00:45:34;24.50;69.90
48998;DHT22;34807;51.456;7.244;2023-06-26T00:47:59;24.50;69.70
48998;DHT22;34807;51.456;7.244;2023-06-26T00:50:25;24.50;69.90
48998;DHT22;34807;51.456;7.244;2023-06-26T00:52:51;24.40;69.70
48998;DHT22;34807;51.456;7.244;2023-06-26T00:55:17;24.40;69.80
48998;DHT22;34807;51.456;7.244;2023-06-26T00:57:43;24.40;69.80
48998;DHT22;34807;51.456;7.244;2023-06-26T01:00:11;24.30;69.90
48998;DHT22;34807;51.456;7.244;2023-06-26T01:02:37;24.30;69.80
48998;DHT22;34807;51.456;7.244;2023-06-26T01:05:04;24.30;69.90
48998;DHT22;34807;51.456;7.244;2023-06-26T01:07:32;24.30;70.00
48998;DHT22;34807;51.456;7.244;2023-06-26T01:09:59;24.20;70.00
48998;DHT22;34807;51.456;7.244;2023-06-26T01:12:25;24.20;69.90
48998;DHT22;34807;51.456;7.244;2023-06-26T01:14:51;24.20;69.90
48998;DHT22;34807;51.456;7.244;2023-06-26T01:17:16;24.20;70.10
48998;DHT22;34807;51.456;7.244;2023-06-26T01:19:42;24.20;70.00
48998;DHT22;34807;51.456;7.244;2023-06-26T01:24:41;24.10;70.00
48998;DHT22;34807;51.456;7.244;2023-06-26T01:27:07;24.10;70.00
48998;DHT22;34807;51.456;7.244;2023-06-26T01:29:33;24.10;70.10
48998;DHT22;34807;51.456;7.244;2023-06-26T01:31:59;24.00;69.80
48998;DHT22;34807;51.456;7.244;2023-06-26T01:34:25;24.00;70.00
48998;DHT22;34807;51.456;7.244;2023-06-26T01:36:51;24.00;70.20
48998;DHT22;34807;51.456;7.244;2023-06-26T01:39:18;24.00;70.20
48998;DHT22;34807;51.456;7.244;2023-06-26T01:41:43;23.90;70.00
48998;DHT22;34807;51.456;7.244;2023-06-26T01:44:43;23.90;70.30
48998;DHT22;34807;51.456;7.244;2023-06-26T01:47:01;23.90;70.30
48998;DHT22;34807;51.456;7.244;2023-06-26T01:52:14;23.90;70.50
48998;DHT22;34807;51.456;7.244;2023-06-26T01:54:45;23.80;70.40
48998;DHT22;34807;51.456;7.244;2023-06-26T01:57:12;23.80;70.40
48998;DHT22;34807;51.456;7.244;2023-06-26T01:59:38;23.80;70.30
48998;DHT22;34807;51.456;7.244;2023-06-26T02:02:08;23.80;70.50
48998;DHT22;34807;51.456;7.244;2023-06-26T02:04:34;23.70;70.40
48998;DHT22;34807;51.456;7.244;2023-06-26T02:06:59;23.70;70.50
48998;DHT22;34807;51.456;7.244;2023-06-26T02:09:25;23.70;70.60
48998;DHT22;34807;51.456;7.244;2023-06-26T02:11:51;23.60;70.40
48998;DHT22;34807;51.456;7.244;2023-06-26T02:14:16;23.60;70.50
48998;DHT22;34807;51.456;7.244;2023-06-26T02:16:42;23.60;70.60
48998;DHT22;34807;51.456;7.244;2023-06-26T02:19:07;23.60;70.60
48998;DHT22;34807;51.456;7.244;2023-06-26T02:21:33;23.60;70.80
48998;DHT22;34807;51.456;7.244;2023-06-26T02:23:58;23.60;70.70
48998;DHT22;34807;51.456;7.244;2023-06-26T02:26:24;23.50;70.60
48998;DHT22;34807;51.456;7.244;2023-06-26T02:28:50;23.50;70.50
48998;DHT22;34807;51.456;7.244;2023-06-26T02:31:15;23.40;70.60
48998;DHT22;34807;51.456;7.244;2023-06-26T02:33:41;23.50;70.80
48998;DHT22;34807;51.456;7.244;2023-06-26T02:36:06;23.40;70.60
48998;DHT22;34807;51.456;7.244;2023-06-26T02:38:32;23.40;70.80
48998;DHT22;34807;51.456;7.244;2023-06-26T02:40:57;23.40;70.80
48998;DHT22;34807;51.456;7.244;2023-06-26T02:43:23;23.40;71.10
48998;DHT22;34807;51.456;7.244;2023-06-26T02:45:48;23.30;70.70
48998;DHT22;34807;51.456;7.244;2023-06-26T02:48:14;23.30;70.80
48998;DHT22;34807;51.456;7.244;2023-06-26T02:50:39;23.30;70.90
48998;DHT22;34807;51.456;7.244;2023-06-26T02:53:05;23.30;70.90
48998;DHT22;34807;51.456;7.244;2023-06-26T02:55:30;23.30;70.90
48998;DHT22;34807;51.456;7.244;2023-06-26T02:57:56;23.30;70.90
48998;DHT22;34807;51.456;7.244;2023-06-26T03:00:21;23.20;70.80
48998;DHT22;34807;51.456;7.244;2023-06-26T03:02:47;23.20;70.70
48998;DHT22;34807;51.456;7.244;2023-06-26T03:05:12;23.20;70.90
48998;DHT22;34807;51.456;7.244;2023-06-26T03:07:38;23.20;71.10
48998;DHT22;34807;51.456;7.244;2023-06-26T03:10:04;23.10;71.00
48998;DHT22;34807;51.456;7.244;2023-06-26T03:12:30;23.10;70.80
48998;DHT22;34807;51.456;7.244;2023-06-26T03:14:56;23.10;71.10
48998;DHT22;34807;51.456;7.244;2023-06-26T03:17:21;23.10;71.10
48998;DHT22;34807;51.456;7.244;2023-06-26T03:19:47;23.10;70.90
48998;DHT22;34807;51.456;7.244;2023-06-26T03:22:12;23.10;70.80
48998;DHT22;34807;51.456;7.244;2023-06-26T03:24:38;23.00;70.90
48998;DHT22;34807;51.456;7.244;2023-06-26T03:27:03;23.00;70.70
48998;DHT22;34807;51.456;7.244;2023-06-26T03:29:29;23.00;70.80
48998;DHT22;34807;51.456;7.244;2023-06-26T03:31:55;23.00;70.70
48998;DHT22;34807;51.456;7.244;2023-06-26T03:34:20;23.00;71.10
48998;DHT22;34807;51.456;7.244;2023-06-26T03:36:46;23.00;70.60
48998;DHT22;34807;51.456;7.244;2023-06-26T03:39:12;23.00;71.30
48998;DHT22;34807;51.456;7.244;2023-06-26T03:41:37;22.90;71.20
48998;DHT22;34807;51.456;7.244;2023-06-26T03:44:03;22.90;70.90
48998;DHT22;34807;51.456;7.244;2023-06-26T03:46:29;22.90;71.10
48998;DHT22;34807;51.456;7.244;2023-06-26T03:48:54;22.90;71.00
48998;DHT22;34807;51.456;7.244;2023-06-26T03:51:20;22.90;71.10
48998;DHT22;34807;51.456;7.244;2023-06-26T03:53:45;22.80;71.00
48998;DHT22;34807;51.456;7.244;2023-06-26T03:56:11;22.80;71.10
48998;DHT22;34807;51.456;7.244;2023-06-26T03:58:36;22.80;71.20
48998;DHT22;34807;51.456;7.244;2023-06-26T04:01:02;22.80;71.00
48998;DHT22;34807;51.456;7.244;2023-06-26T04:03:27;22.90;71.20
48998;DHT22;34807;51.456;7.244;2023-06-26T04:05:53;22.80;70.80
48998;DHT22;34807;51.456;7.244;2023-06-26T04:08:18;22.80;70.80
48998;DHT22;34807;51.456;7.244;2023-06-26T04:10:45;22.80;71.10
48998;DHT22;34807;51.456;7.244;2023-06-26T04:13:10;22.80;71.00
48998;DHT22;34807;51.456;7.244;2023-06-26T04:15:36;22.80;70.90
48998;DHT22;34807;51.456;7.244;2023-06-26T04:18:01;22.80;70.90
48998;DHT22;34807;51.456;7.244;2023-06-26T04:20:28;22.80;70.90
48998;DHT22;34807;51.456;7.244;2023-06-26T04:22:53;22.80;71.10
48998;DHT22;34807;51.456;7.244;2023-06-26T04:25:19;22.80;70.90
48998;DHT22;34807;51.456;7.244;2023-06-26T04:27:44;22.80;70.90
48998;DHT22;34807;51.456;7.244;2023-06-26T04:30:10;22.80;71.10
48998;DHT22;34807;51.456;7.244;2023-06-26T04:32:37;22.80;70.90
48998;DHT22;34807;51.456;7.244;2023-06-26T04:35:02;22.80;71.10
48998;DHT22;34807;51.456;7.244;2023-06-26T04:37:28;22.80;70.90
48998;DHT22;34807;51.456;7.244;2023-06-26T04:39:53;22.80;71.00
48998;DHT22;34807;51.456;7.244;2023-06-26T04:42:19;22.80;70.70
48998;DHT22;34807;51.456;7.244;2023-06-26T04:44:47;22.80;71.00
48998;DHT22;34807;51.456;7.244;2023-06-26T04:47:12;22.80;70.90
48998;DHT22;34807;51.456;7.244;2023-06-26T04:49:40;22.70;70.70
48998;DHT22;34807;51.456;7.244;2023-06-26T04:52:08;22.70;70.90
48998;DHT22;34807;51.456;7.244;2023-06-26T04:54:34;22.70;70.90
48998;DHT22;34807;51.456;7.244;2023-06-26T04:56:59;22.70;71.00
48998;DHT22;34807;51.456;7.244;2023-06-26T04:59:25;22.70;70.90
48998;DHT22;34807;51.456;7.244;2023-06-26T05:01:50;22.70;70.90
48998;DHT22;34807;51.456;7.244;2023-06-26T05:04:16;22.70;70.80
48998;DHT22;34807;51.456;7.244;2023-06-26T05:06:41;22.70;70.90
48998;DHT22;34807;51.456;7.244;2023-06-26T05:09:07;22.80;70.90
48998;DHT22;34807;51.456;7.244;2023-06-26T05:11:32;22.70;71.10
48998;DHT22;34807;51.456;7.244;2023-06-26T05:13:58;22.80;70.90
48998;DHT22;34807;51.456;7.244;2023-06-26T05:16:23;22.80;71.10
48998;DHT22;34807;51.456;7.244;2023-06-26T05:18:49;22.80;71.10
48998;DHT22;34807;51.456;7.244;2023-06-26T05:21:15;22.70;71.00
48998;DHT22;34807;51.456;7.244;2023-06-26T05:23:41;22.80;70.90
48998;DHT22;34807;51.456;7.244;2023-06-26T05:26:09;22.80;71.00
48998;DHT22;34807;51.456;7.244;2023-06-26T05:28:36;22.70;70.90
48998;DHT22;34807;51.456;7.244;2023-06-26T05:31:01;22.80;71.10
48998;DHT22;34807;51.456;7.244;2023-06-26T05:33:30;22.70;71.10
48998;DHT22;34807;51.456;7.244;2023-06-26T05:35:56;22.70;71.10
48998;DHT22;34807;51.456;7.244;2023-06-26T05:38:22;22.70;71.10
48998;DHT22;34807;51.456;7.244;2023-06-26T05:40:47;22.70;71.10
48998;DHT22;34807;51.456;7.244;2023-06-26T05:43:13;22.70;71.20
48998;DHT22;34807;51.456;7.244;2023-06-26T05:45:39;22.70;71.30
48998;DHT22;34807;51.456;7.244;2023-06-26T05:48:05;22.80;71.30
48998;DHT22;34807;51.456;7.244;2023-06-26T05:50:31;22.80;71.10
48998;DHT22;34807;51.456;7.244;2023-06-26T05:52:56;22.80;71.30
48998;DHT22;34807;51.456;7.244;2023-06-26T05:55:22;22.80;71.30
48998;DHT22;34807;51.456;7.244;2023-06-26T05:57:48;22.80;71.30
48998;DHT22;34807;51.456;7.244;2023-06-26T06:00:15;22.80;71.40
48998;DHT22;34807;51.456;7.244;2023-06-26T06:02:41;22.90;71.30
48998;DHT22;34807;51.456;7.244;2023-06-26T06:05:07;22.90;71.30
48998;DHT22;34807;51.456;7.244;2023-06-26T06:07:33;22.90;71.40
48998;DHT22;34807;51.456;7.244;2023-06-26T06:09:59;22.90;71.30
48998;DHT22;34807;51.456;7.244;2023-06-26T06:12:25;22.90;71.30
48998;DHT22;34807;51.456;7.244;2023-06-26T06:14:51;22.80;71.40
48998;DHT22;34807;51.456;7.244;2023-06-26T06:17:16;22.90;71.40
48998;DHT22;34807;51.456;7.244;2023-06-26T06:19:42;22.90;71.40
48998;DHT22;34807;51.456;7.244;2023-06-26T06:22:07;22.90;71.30
48998;DHT22;34807;51.456;7.244;2023-06-26T06:24:33;22.90;71.30
48998;DHT22;34807;51.456;7.244;2023-06-26T06:26:58;22.90;71.20
48998;DHT22;34807;51.456;7.244;2023-06-26T06:29:24;22.90;71.40
48998;DHT22;34807;51.456;7.244;2023-06-26T06:31:49;22.90;71.80
48998;DHT22;34807;51.456;7.244;2023-06-26T06:34:15;22.90;71.40
48998;DHT22;34807;51.456;7.244;2023-06-26T06:36:40;23.00;71.60
48998;DHT22;34807;51.456;7.244;2023-06-26T06:39:06;23.00;71.40
48998;DHT22;34807;51.456;7.244;2023-06-26T06:41:31;23.00;71.20
48998;DHT22;34807;51.456;7.244;2023-06-26T06:43:56;23.10;71.30
48998;DHT22;34807;51.456;7.244;2023-06-26T06:46:22;23.10;71.40
48998;DHT22;34807;51.456;7.244;2023-06-26T06:48:47;23.10;71.30
48998;DHT22;34807;51.456;7.244;2023-06-26T06:51:13;23.20;71.10
48998;DHT22;34807;51.456;7.244;2023-06-26T06:53:38;23.20;71.10
48998;DHT22;34807;51.456;7.244;2023-06-26T06:56:04;23.20;70.90
48998;DHT22;34807;51.456;7.244;2023-06-26T06:58:29;23.20;71.10
48998;DHT22;34807;51.456;7.244;2023-06-26T07:00:59;23.20;71.20
48998;DHT22;34807;51.456;7.244;2023-06-26T07:03:24;23.10;71.30
48998;DHT22;34807;51.456;7.244;2023-06-26T07:05:50;23.10;71.50
48998;DHT22;34807;51.456;7.244;2023-06-26T07:08:15;23.10;71.30
48998;DHT22;34807;51.456;7.244;2023-06-26T07:10:41;23.10;71.30
48998;DHT22;34807;51.456;7.244;2023-06-26T07:13:06;23.10;71.40
48998;DHT22;34807;51.456;7.244;2023-06-26T07:15:32;23.10;71.40
48998;DHT22;34807;51.456;7.244;2023-06-26T07:17:57;23.10;71.40
48998;DHT22;34807;51.456;7.244;2023-06-26T07:20:23;23.10;71.60
48998;DHT22;34807;51.456;7.244;2023-06-26T07:22:49;23.10;71.40
48998;DHT22;34807;51.456;7.244;2023-06-26T07:25:15;23.10;71.50
48998;DHT22;34807;51.456;7.244;2023-06-26T07:27:40;23.10;71.60
48998;DHT22;34807;51.456;7.244;2023-06-26T07:30:06;23.20;71.50
48998;DHT22;34807;51.456;7.244;2023-06-26T07:32:34;23.20;71.50
48998;DHT22;34807;51.456;7.244;2023-06-26T07:34:59;23.20;71.60
48998;DHT22;34807;51.456;7.244;2023-06-26T07:37:25;23.20;71.60
48998;DHT22;34807;51.456;7.244;2023-06-26T07:39:51;23.20;71.90
48998;DHT22;34807;51.456;7.244;2023-06-26T07:42:16;23.20;71.70
48998;DHT22;34807;51.456;7.244;2023-06-26T07:44:42;23.20;71.60
48998;DHT22;34807;51.456;7.244;2023-06-26T07:47:07;23.20;71.50
48998;DHT22;34807;51.456;7.244;2023-06-26T07:49:33;23.30;71.80
48998;DHT22;34807;51.456;7.244;2023-06-26T07:51:58;23.30;71.50
48998;DHT22;34807;51.456;7.244;2023-06-26T07:54:24;23.30;71.60
48998;DHT22;34807;51.456;7.244;2023-06-26T07:59:18;23.30;72.30
48998;DHT22;34807;51.456;7.244;2023-06-26T08:01:44;23.40;71.60
48998;DHT22;34807;51.456;7.244;2023-06-26T08:04:09;23.40;71.60
48998;DHT22;34807;51.456;7.244;2023-06-26T08:06:36;23.40;71.60
48998;DHT22;34807;51.456;7.244;2023-06-26T08:09:05;23.40;71.50
48998;DHT22;34807;51.456;7.244;2023-06-26T08:11:33;23.50;71.50
48998;DHT22;34807;51.456;7.244;2023-06-26T08:13:58;23.50;71.50
48998;DHT22;34807;51.456;7.244;2023-06-26T08:16:24;23.60;71.40
48998;DHT22;34807;51.456;7.244;2023-06-26T08:18:49;23.60;71.80
48998;DHT22;34807;51.456;7.244;2023-06-26T08:21:15;23.60;72.00
48998;DHT22;34807;51.456;7.244;2023-06-26T08:23:40;23.60;71.40
48998;DHT22;34807;51.456;7.244;2023-06-26T08:26:06;23.60;71.50
48998;DHT22;34807;51.456;7.244;2023-06-26T08:28:31;23.60;71.40
48998;DHT22;34807;51.456;7.244;2023-06-26T08:30:57;23.60;71.50
48998;DHT22;34807;51.456;7.244;2023-06-26T08:33:22;23.70;71.40
48998;DHT22;34807;51.456;7.244;2023-06-26T08:35:48;23.70;71.50
48998;DHT22;34807;51.456;7.244;2023-06-26T08:38:13;23.70;71.70
48998;DHT22;34807;51.456;7.244;2023-06-26T08:40:39;23.70;71.40
48998;DHT22;34807;51.456;7.244;2023-06-26T08:43:04;23.80;71.40
48998;DHT22;34807;51.456;7.244;2023-06-26T08:45:30;23.70;71.50
48998;DHT22;34807;51.456;7.244;2023-06-26T08:47:56;23.80;71.60
48998;DHT22;34807;51.456;7.244;2023-06-26T08:50:24;23.80;71.60
48998;DHT22;34807;51.456;7.244;2023-06-26T08:52:57;23.80;71.90
48998;DHT22;34807;51.456;7.244;2023-06-26T08:55:24;23.80;71.60
48998;DHT22;34807;51.456;7.244;2023-06-26T08:57:51;23.90;71.50
48998;DHT22;34807;51.456;7.244;2023-06-26T09:00:18;23.90;71.60
48998;DHT22;34807;51.456;7.244;2023-06-26T09:02:44;24.00;71.60
48998;DHT22;34807;51.456;7.244;2023-06-26T09:05:10;24.00;71.50
48998;DHT22;34807;51.456;7.244;2023-06-26T09:07:36;24.10;71.40
48998;DHT22;34807;51.456;7.244;2023-06-26T09:10:02;24.00;71.50
48998;DHT22;34807;51.456;7.244;2023-06-26T09:12:27;24.00;71.60
48998;DHT22;34807;51.456;7.244;2023-06-26T09:14:54;24.00;71.70
48998;DHT22;34807;51.456;7.244;2023-06-26T09:17:24;24.00;71.40
48998;DHT22;34807;51.456;7.244;2023-06-26T09:19:50;24.10;71.40
48998;DHT22;34807;51.456;7.244;2023-06-26T09:22:16;24.10;71.40
48998;DHT22;34807;51.456;7.244;2023-06-26T09:24:43;24.30;71.10
48998;DHT22;34807;51.456;7.244;2023-06-26T09:27:09;24.30;71.30
48998;DHT22;34807;51.456;7.244;2023-06-26T09:29:35;24.30;71.10
48998;DHT22;34807;51.456;7.244;2023-06-26T09:32:00;24.30;70.90
48998;DHT22;34807;51.456;7.244;2023-06-26T09:34:32;24.30;71.20
48998;DHT22;34807;51.456;7.244;2023-06-26T09:36:58;24.30;70.90
48998;DHT22;34807;51.456;7.244;2023-06-26T09:39:23;24.40;70.80
48998;DHT22;34807;51.456;7.244;2023-06-26T09:41:49;24.40;71.00
48998;DHT22;34807;51.456;7.244;2023-06-26T09:44:15;24.30;70.90
48998;DHT22;34807;51.456;7.244;2023-06-26T09:46:40;24.40;70.80
48998;DHT22;34807;51.456;7.244;2023-06-26T09:49:07;24.50;70.60
48998;DHT22;34807;51.456;7.244;2023-06-26T09:51:33;24.60;70.40
48998;DHT22;34807;51.456;7.244;2023-06-26T09:53:59;24.70;70.00
48998;DHT22;34807;51.456;7.244;2023-06-26T09:56:24;24.70;70.20
48998;DHT22;34807;51.456;7.244;2023-06-26T09:58:50;24.60;70.20
48998;DHT22;34807;51.456;7.244;2023-06-26T10:01:17;24.60;70.40
48998;DHT22;34807;51.456;7.244;2023-06-26T10:03:42;24.50;70.50
48998;DHT22;34807;51.456;7.244;2023-06-26T10:06:08;24.50;70.40
48998;DHT22;34807;51.456;7.244;2023-06-26T10:08:34;24.70;70.40
48998;DHT22;34807;51.456;7.244;2023-06-26T10:11:02;24.80;70.00
48998;DHT22;34807;51.456;7.244;2023-06-26T10:13:30;24.70;69.90
48998;DHT22;34807;51.456;7.244;2023-06-26T10:15:56;24.70;70.10
48998;DHT22;34807;51.456;7.244;2023-06-26T10:18:24;24.70;70.20
48998;DHT22;34807;51.456;7.244;2023-06-26T10:20:51;24.70;70.00
48998;DHT22;34807;51.456;7.244;2023-06-26T10:23:19;24.70;69.90
48998;DHT22;34807;51.456;7.244;2023-06-26T10:25:45;24.70;70.20
48998;DHT22;34807;51.456;7.244;2023-06-26T10:28:12;24.60;70.10
48998;DHT22;34807;51.456;7.244;2023-06-26T10:30:38;24.70;70.00
48998;DHT22;34807;51.456;7.244;2023-06-26T10:33:04;24.80;69.60
48998;DHT22;34807;51.456;7.244;2023-06-26T10:35:31;24.80;69.70
48998;DHT22;34807;51.456;7.244;2023-06-26T10:38:00;24.90;69.70
48998;DHT22;34807;51.456;7.244;2023-06-26T10:40:27;24.90;69.40
48998;DHT22;34807;51.456;7.244;2023-06-26T10:43:06;24.90;68.30
48998;DHT22;34807;51.456;7.244;2023-06-26T10:45:35;25.00;69.20
48998;DHT22;34807;51.456;7.244;2023-06-26T10:48:01;25.00;69.20
48998;DHT22;34807;51.456;7.244;2023-06-26T10:50:27;24.90;68.90
48998;DHT22;34807;51.456;7.244;2023-06-26T10:55:47;24.90;69.30
48998;DHT22;34807;51.456;7.244;2023-06-26T10:58:29;24.90;69.40
48998;DHT22;34807;51.456;7.244;2023-06-26T11:03:36;24.90;69.10
48998;DHT22;34807;51.456;7.244;2023-06-26T11:06:09;24.90;69.00
48998;DHT22;34807;51.456;7.244;2023-06-26T11:08:44;24.90;69.30
48998;DHT22;34807;51.456;7.244;2023-06-26T11:11:10;24.90;69.10
48998;DHT22;34807;51.456;7.244;2023-06-26T11:13:36;24.80;68.20
48998;DHT22;34807;51.456;7.244;2023-06-26T11:16:02;24.80;69.10
48998;DHT22;34807;51.456;7.244;2023-06-26T11:18:28;24.80;68.30
48998;DHT22;34807;51.456;7.244;2023-06-26T11:20:53;24.90;69.10
48998;DHT22;34807;51.456;7.244;2023-06-26T11:23:21;25.00;68.50
48998;DHT22;34807;51.456;7.244;2023-06-26T11:25:48;25.20;68.40
48998;DHT22;34807;51.456;7.244;2023-06-26T11:28:14;25.30;68.10
48998;DHT22;34807;51.456;7.244;2023-06-26T11:30:39;25.30;68.20
48998;DHT22;34807;51.456;7.244;2023-06-26T11:33:07;25.30;68.20
48998;DHT22;34807;51.456;7.244;2023-06-26T11:35:33;25.30;68.20
48998;DHT22;34807;51.456;7.244;2023-06-26T11:38:00;25.20;68.20
48998;DHT22;34807;51.456;7.244;2023-06-26T11:40:29;25.20;68.30
48998;DHT22;34807;51.456;7.244;2023-06-26T11:43:00;25.20;68.40
48998;DHT22;34807;51.456;7.244;2023-06-26T11:45:27;25.20;68.10
48998;DHT22;34807;51.456;7.244;2023-06-26T11:47:54;25.30;68.00
48998;DHT22;34807;51.456;7.244;2023-06-26T11:50:20;25.30;68.00
48998;DHT22;34807;51.456;7.244;2023-06-26T11:52:45;25.30;67.80
48998;DHT22;34807;51.456;7.244;2023-06-26T11:55:17;25.30;68.10
48998;DHT22;34807;51.456;7.244;2023-06-26T11:57:47;25.30;67.80
48998;DHT22;34807;51.456;7.244;2023-06-26T12:00:15;25.40;67.60
48998;DHT22;34807;51.456;7.244;2023-06-26T12:02:42;25.50;67.20
48998;DHT22;34807;51.456;7.244;2023-06-26T12:05:08;25.60;67.10
48998;DHT22;34807;51.456;7.244;2023-06-26T12:07:34;25.60;66.90
48998;DHT22;34807;51.456;7.244;2023-06-26T12:10:02;25.50;66.60
48998;DHT22;34807;51.456;7.244;2023-06-26T12:12:29;25.60;65.90
48998;DHT22;34807;51.456;7.244;2023-06-26T12:14:55;25.60;66.90
48998;DHT22;34807;51.456;7.244;2023-06-26T12:17:22;25.60;66.70
48998;DHT22;34807;51.456;7.244;2023-06-26T12:19:47;25.60;66.50
48998;DHT22;34807;51.456;7.244;2023-06-26T12:22:13;25.70;65.90
48998;DHT22;34807;51.456;7.244;2023-06-26T12:24:39;25.70;65.90
48998;DHT22;34807;51.456;7.244;2023-06-26T12:27:11;25.70;66.50
48998;DHT22;34807;51.456;7.244;2023-06-26T12:29:38;25.70;65.90
48998;DHT22;34807;51.456;7.244;2023-06-26T12:32:07;25.70;66.30
48998;DHT22;34807;51.456;7.244;2023-06-26T12:34:34;25.80;66.10
48998;DHT22;34807;51.456;7.244;2023-06-26T12:37:02;25.80;65.80
48998;DHT22;34807;51.456;7.244;2023-06-26T12:39:28;25.80;66.00
48998;DHT22;34807;51.456;7.244;2023-06-26T12:41:55;25.90;65.00
48998;DHT22;34807;51.456;7.244;2023-06-26T12:44:21;25.80;65.40
48998;DHT22;34807;51.456;7.244;2023-06-26T12:46:48;25.90;65.40
48998;DHT22;34807;51.456;7.244;2023-06-26T12:49:14;25.90;63.60
48998;DHT22;34807;51.456;7.244;2023-06-26T12:51:40;26.00;64.60
48998;DHT22;34807;51.456;7.244;2023-06-26T12:54:05;26.10;63.70
48998;DHT22;34807;51.456;7.244;2023-06-26T12:56:31;26.20;63.70
48998;DHT22;34807;51.456;7.244;2023-06-26T12:58:56;26.20;63.80
48998;DHT22;34807;51.456;7.244;2023-06-26T13:01:22;26.20;63.90
48998;DHT22;34807;51.456;7.244;2023-06-26T13:03:49;26.30;63.40
48998;DHT22;34807;51.456;7.244;2023-06-26T13:06:16;26.40;63.10
48998;DHT22;34807;51.456;7.244;2023-06-26T13:08:41;26.30;62.70
48998;DHT22;34807;51.456;7.244;2023-06-26T13:11:08;26.30;62.80
48998;DHT22;34807;51.456;7.244;2023-06-26T13:13:34;26.20;61.40
48998;DHT22;34807;51.456;7.244;2023-06-26T13:15:59;26.20;62.40
48998;DHT22;34807;51.456;7.244;2023-06-26T13:18:25;26.30;62.00
48998;DHT22;34807;51.456;7.244;2023-06-26T13:20:51;26.40;63.10
48998;DHT22;34807;51.456;7.244;2023-06-26T13:23:16;26.40;63.00
48998;DHT22;34807;51.456;7.244;2023-06-26T13:25:43;26.50;61.80
48998;DHT22;34807;51.456;7.244;2023-06-26T13:28:11;26.50;61.00
48998;DHT22;34807;51.456;7.244;2023-06-26T13:30:36;26.50;61.70
48998;DHT22;34807;51.456;7.244;2023-06-26T13:33:02;26.40;62.90
48998;DHT22;34807;51.456;7.244;2023-06-26T13:35:28;26.40;62.90
48998;DHT22;34807;51.456;7.244;2023-06-26T13:37:53;26.40;62.40
48998;DHT22;34807;51.456;7.244;2023-06-26T13:40:19;26.40;62.60
48998;DHT22;34807;51.456;7.244;2023-06-26T13:42:44;26.50;61.70
48998;DHT22;34807;51.456;7.244;2023-06-26T13:45:10;26.50;61.90
48998;DHT22;34807;51.456;7.244;2023-06-26T13:47:36;26.50;62.20
48998;DHT22;34807;51.456;7.244;2023-06-26T13:50:07;26.50;61.70
48998;DHT22;34807;51.456;7.244;2023-06-26T13:52:32;26.50;61.20
48998;DHT22;34807;51.456;7.244;2023-06-26T13:54:58;26.50;61.60
48998;DHT22;34807;51.456;7.244;2023-06-26T13:57:23;26.50;62.10
48998;DHT22;34807;51.456;7.244;2023-06-26T13:59:49;26.60;62.00
48998;DHT22;34807;51.456;7.244;2023-06-26T14:02:14;26.60;60.90
48998;DHT22;34807;51.456;7.244;2023-06-26T14:04:39;26.70;61.50
48998;DHT22;34807;51.456;7.244;2023-06-26T14:07:05;26.70;59.60
48998;DHT22;34807;51.456;7.244;2023-06-26T14:09:32;26.70;61.10
48998;DHT22;34807;51.456;7.244;2023-06-26T14:11:58;26.80;61.20
48998;DHT22;34807;51.456;7.244;2023-06-26T14:14:23;26.80;61.20
48998;DHT22;34807;51.456;7.244;2023-06-26T14:16:49;26.90;60.00
48998;DHT22;34807;51.456;7.244;2023-06-26T14:19:14;26.90;59.80
48998;DHT22;34807;51.456;7.244;2023-06-26T14:21:41;26.80;59.70
48998;DHT22;34807;51.456;7.244;2023-06-26T14:24:06;26.80;60.50
48998;DHT22;34807;51.456;7.244;2023-06-26T14:26:32;26.70;60.00
48998;DHT22;34807;51.456;7.244;2023-06-26T14:28:59;26.70;59.90
48998;DHT22;34807;51.456;7.244;2023-06-26T14:31:25;26.80;58.90
48998;DHT22;34807;51.456;7.244;2023-06-26T14:33:50;26.80;59.90
48998;DHT22;34807;51.456;7.244;2023-06-26T14:36:16;26.70;60.20
48998;DHT22;34807;51.456;7.244;2023-06-26T14:38:41;26.70;59.10
48998;DHT22;34807;51.456;7.244;2023-06-26T14:41:07;26.80;59.50
48998;DHT22;34807;51.456;7.244;2023-06-26T14:43:32;26.90;59.50
48998;DHT22;34807;51.456;7.244;2023-06-26T14:45:58;27.00;57.40
48998;DHT22;34807;51.456;7.244;2023-06-26T14:48:23;27.00;58.80
48998;DHT22;34807;51.456;7.244;2023-06-26T14:50:49;27.10;56.10
48998;DHT22;34807;51.456;7.244;2023-06-26T14:53:14;27.30;57.90
48998;DHT22;34807;51.456;7.244;2023-06-26T14:55:40;27.40;56.50
48998;DHT22;34807;51.456;7.244;2023-06-26T14:58:05;27.40;55.80
48998;DHT22;34807;51.456;7.244;2023-06-26T15:00:31;27.50;56.10
48998;DHT22;34807;51.456;7.244;2023-06-26T15:02:56;27.50;56.40
48998;DHT22;34807;51.456;7.244;2023-06-26T15:05:23;27.50;56.90
48998;DHT22;34807;51.456;7.244;2023-06-26T15:07:49;27.50;57.20
48998;DHT22;34807;51.456;7.244;2023-06-26T15:10:15;27.40;57.50
48998;DHT22;34807;51.456;7.244;2023-06-26T15:12:41;27.30;56.40
48998;DHT22;34807;51.456;7.244;2023-06-26T15:15:07;27.20;58.00
48998;DHT22;34807;51.456;7.244;2023-06-26T15:17:33;27.20;57.40
48998;DHT22;34807;51.456;7.244;2023-06-26T15:19:59;27.30;57.90
48998;DHT22;34807;51.456;7.244;2023-06-26T15:22:25;27.40;56.60
48998;DHT22;34807;51.456;7.244;2023-06-26T15:24:51;27.50;56.50
48998;DHT22;34807;51.456;7.244;2023-06-26T15:27:17;27.60;56.10
48998;DHT22;34807;51.456;7.244;2023-06-26T15:29:42;27.70;56.40
48998;DHT22;34807;51.456;7.244;2023-06-26T15:32:08;27.90;56.10
48998;DHT22;34807;51.456;7.244;2023-06-26T15:34:33;27.90;55.40
48998;DHT22;34807;51.456;7.244;2023-06-26T15:36:59;28.10;56.10